Time,TemperatureF,DewpointF,PressureIn,WindDirection,WindDirectionDegrees,WindSpeedMPH,WindSpeedGustMPH,Humidity,HourlyPrecipIn,Conditions,Clouds,dailyrainin,SolarRadiationWatts/m^2,SoftwareType,DateUTC
2013-04-02 00:03:00,61.0,60.0,-100.00,SE,143,0.0,0.0,95,0.00,,,0.00,0.000000,,2013-04-02 04:03:00,
2013-04-02 00:11:00,60.0,59.0,-100.00,NE,40,0.0,2.0,95,0.00,,,0.00,0.000000,,2013-04-02 04:11:00,
2013-04-02 00:43:00,60.0,59.0,-100.00,NE,40,0.0,2.0,95,0.00,,,0.00,0.000000,,2013-04-02 04:43:00,
2013-04-02 00:53:00,60.0,59.0,-100.00,NE,40,0.0,2.0,95,0.00,,,0.00,0.000000,,2013-04-02 04:53:00,
2013-04-02 01:02:00,60.0,59.0,-100.00,NE,40,0.0,2.0,95,0.00,,,0.00,0.000000,,2013-04-02 05:02:00,
2013-04-02 01:11:00,60.0,59.0,-100.00,NNE,31,0.0,2.0,96,0.00,,,0.00,0.000000,,2013-04-02 05:11:00,
2013-04-02 01:43:00,60.0,59.0,-100.00,NNE,31,0.0,2.0,96,0.00,,,0.00,0.000000,,2013-04-02 05:43:00,
2013-04-02 01:52:00,60.0,59.0,-100.00,NNE,31,0.0,2.0,96,0.00,,,0.00,0.000000,,2013-04-02 05:52:00,
2013-04-02 02:02:00,60.0,59.0,-100.00,NNE,31,0.0,2.0,96,0.00,,,0.00,0.000000,,2013-04-02 06:02:00,
2013-04-02 02:11:00,59.0,58.0,-100.00,South,187,0.0,2.0,97,0.00,,,0.00,0.000000,,2013-04-02 06:11:00,
2013-04-02 02:32:00,59.0,58.0,-100.00,South,187,0.0,2.0,97,0.00,,,0.00,0.000000,,2013-04-02 06:32:00,
2013-04-02 02:42:00,59.0,58.0,-100.00,South,187,0.0,2.0,97,0.00,,,0.00,0.000000,,2013-04-02 06:42:00,
2013-04-02 02:52:00,59.0,58.0,-100.00,South,187,0.0,2.0,97,0.00,,,0.00,0.000000,,2013-04-02 06:52:00,
2013-04-02 03:02:00,59.0,58.0,-100.00,South,187,0.0,2.0,97,0.00,,,0.00,0.000000,,2013-04-02 07:02:00,
2013-04-02 04:11:00,58.0,57.0,-100.00,North,5,0.0,0.0,97,-99.99,,,0.00,0.000000,,2013-04-02 08:11:00,
2013-04-02 04:43:00,58.0,57.0,-100.00,North,5,0.0,0.0,97,-99.99,,,0.00,0.000000,,2013-04-02 08:43:00,
2013-04-02 04:52:00,58.0,57.0,-100.00,North,5,0.0,0.0,97,-99.99,,,0.00,0.000000,,2013-04-02 08:52:00,
2013-04-02 05:02:00,58.0,57.0,-100.00,North,5,0.0,0.0,97,-99.99,,,0.00,0.000000,,2013-04-02 09:02:00,
2013-04-02 05:11:00,59.0,58.0,-100.00,North,354,0.0,0.0,97,0.00,,,0.00,0.000000,,2013-04-02 09:11:00,
2013-04-02 05:33:00,59.0,58.0,-100.00,North,354,0.0,0.0,97,0.00,,,0.00,0.000000,,2013-04-02 09:33:00,
2013-04-02 05:43:00,59.0,58.0,-100.00,North,354,0.0,0.0,97,0.00,,,0.00,0.000000,,2013-04-02 09:43:00,
2013-04-02 05:53:00,59.0,58.0,-100.00,North,354,0.0,0.0,97,0.00,,,0.00,0.000000,,2013-04-02 09:53:00,
2013-04-02 06:03:00,59.0,58.0,-100.00,North,354,0.0,0.0,97,0.00,,,0.00,0.000000,,2013-04-02 10:03:00,
2013-04-02 06:11:00,59.0,58.0,-100.00,SSW,210,0.0,2.0,97,0.00,,,0.00,0.000000,,2013-04-02 10:11:00,
2013-04-02 06:33:00,59.0,58.0,-100.00,SSW,210,0.0,2.0,97,0.00,,,0.00,0.000000,,2013-04-02 10:33:00,
2013-04-02 06:43:00,59.0,58.0,-100.00,SSW,210,0.0,2.0,97,0.00,,,0.00,0.000000,,2013-04-02 10:43:00,
2013-04-02 06:53:00,59.0,58.0,-100.00,SSW,210,0.0,2.0,97,0.00,,,0.00,0.000000,,2013-04-02 10:53:00,
2013-04-02 07:02:00,59.0,58.0,-100.00,SSW,210,0.0,2.0,97,0.00,,,0.00,0.000000,,2013-04-02 11:02:00,
2013-04-02 07:11:00,60.0,59.0,-100.00,NNE,25,0.0,2.0,97,0.00,,,0.00,0.000000,,2013-04-02 11:11:00,
2013-04-02 07:33:00,60.0,59.0,-100.00,NNE,25,0.0,2.0,97,0.00,,,0.00,0.000000,,2013-04-02 11:33:00,
2013-04-02 07:43:00,60.0,59.0,-100.00,NNE,25,0.0,2.0,97,0.00,,,0.00,0.000000,,2013-04-02 11:43:00,
2013-04-02 07:53:00,60.0,59.0,-100.00,NNE,25,0.0,2.0,97,0.00,,,0.00,0.000000,,2013-04-02 11:53:00,
2013-04-02 08:02:00,60.0,59.0,-100.00,NNE,25,0.0,2.0,97,0.00,,,0.00,0.000000,,2013-04-02 12:02:00,
2013-04-02 09:11:00,67.0,66.0,-100.00,NNW,345,2.0,4.0,98,-99.99,,,0.00,108.000000,,2013-04-02 13:11:00,
2013-04-02 09:42:00,67.0,66.0,-100.00,NNW,345,2.0,4.0,98,-99.99,,,0.00,108.000000,,2013-04-02 13:42:00,
2013-04-02 09:52:00,67.0,66.0,-100.00,NNW,345,2.0,4.0,98,-99.99,,,0.00,108.000000,,2013-04-02 13:52:00,
2013-04-02 10:02:00,67.0,66.0,-100.00,NNW,345,2.0,4.0,98,-99.99,,,0.00,108.000000,,2013-04-02 14:02:00,
2013-04-02 10:11:00,73.0,69.0,-100.00,NNE,16,3.0,6.0,86,0.00,,,0.00,340.000000,,2013-04-02 14:11:00,
2013-04-02 10:43:00,73.0,69.0,-100.00,NNE,16,3.0,6.0,86,0.00,,,0.00,340.000000,,2013-04-02 14:43:00,
2013-04-02 10:52:00,73.0,69.0,-100.00,NNE,16,3.0,6.0,86,0.00,,,0.00,340.000000,,2013-04-02 14:52:00,
2013-04-02 11:02:00,73.0,69.0,-100.00,NNE,16,3.0,6.0,86,0.00,,,0.00,340.000000,,2013-04-02 15:02:00,
2013-04-02 11:11:00,79.0,65.0,-100.00,NW,321,4.0,9.0,62,0.00,,,0.00,621.000000,,2013-04-02 15:11:00,
2013-04-02 11:33:00,79.0,65.0,-100.00,NW,321,4.0,9.0,62,0.00,,,0.00,621.000000,,2013-04-02 15:33:00,
2013-04-02 11:43:00,79.0,65.0,-100.00,NW,321,4.0,9.0,62,0.00,,,0.00,621.000000,,2013-04-02 15:43:00,
2013-04-02 11:58:00,79.0,65.0,-100.00,NW,321,4.0,9.0,62,0.00,,,0.00,621.000000,,2013-04-02 15:58:00,
2013-04-02 12:11:00,83.0,64.0,-100.00,North,351,3.0,8.0,52,0.00,,,-99.99,772.000000,,2013-04-02 16:11:00,
2013-04-02 12:44:00,83.0,64.0,-100.00,North,351,3.0,8.0,52,0.00,,,-99.99,772.000000,,2013-04-02 16:44:00,
2013-04-02 12:54:00,83.0,64.0,-100.00,North,351,3.0,8.0,52,0.00,,,-99.99,772.000000,,2013-04-02 16:54:00,
2013-04-02 13:06:00,83.0,64.0,-100.00,North,351,3.0,8.0,52,0.00,,,-99.99,772.000000,,2013-04-02 17:06:00,
2013-04-02 13:11:00,84.0,63.0,-100.00,NNE,29,3.0,7.0,49,0.00,,,0.00,806.000000,,2013-04-02 17:11:00,
2013-04-02 13:44:00,84.0,63.0,-100.00,NNE,29,3.0,7.0,49,0.00,,,0.00,806.000000,,2013-04-02 17:44:00,
2013-04-02 13:57:00,84.0,63.0,-100.00,NNE,29,3.0,7.0,49,0.00,,,0.00,806.000000,,2013-04-02 17:57:00,
2013-04-02 14:04:00,84.0,63.0,-100.00,NNE,29,3.0,7.0,49,0.00,,,0.00,806.000000,,2013-04-02 18:04:00,
2013-04-02 14:11:00,87.0,62.0,-100.00,NNE,24,4.0,7.0,44,0.00,,,0.00,863.000000,,2013-04-02 18:11:00,
2013-04-02 14:43:00,87.0,62.0,-100.00,NNE,24,4.0,7.0,44,0.00,,,0.00,863.000000,,2013-04-02 18:43:00,
2013-04-02 14:57:00,87.0,62.0,-100.00,NNE,24,4.0,7.0,44,0.00,,,0.00,863.000000,,2013-04-02 18:57:00,
2013-04-02 15:03:00,87.0,62.0,-100.00,NNE,24,4.0,7.0,44,0.00,,,0.00,863.000000,,2013-04-02 19:03:00,
2013-04-02 15:11:00,88.0,60.0,-100.00,WNW,300,3.0,8.0,39,0.00,,,0.00,782.000000,,2013-04-02 19:11:00,
2013-04-02 15:47:00,88.0,60.0,-100.00,WNW,300,3.0,8.0,39,0.00,,,0.00,782.000000,,2013-04-02 19:47:00,
2013-04-02 15:57:00,88.0,60.0,-100.00,WNW,300,3.0,8.0,39,0.00,,,0.00,782.000000,,2013-04-02 19:57:00,
2013-04-02 16:04:00,88.0,60.0,-100.00,WNW,300,3.0,8.0,39,0.00,,,0.00,782.000000,,2013-04-02 20:04:00,
2013-04-02 16:11:00,88.0,58.0,-100.00,South,188,4.0,7.0,37,0.00,,,0.00,564.000000,,2013-04-02 20:11:00,
2013-04-02 16:44:00,88.0,58.0,-100.00,South,188,4.0,7.0,37,0.00,,,0.00,564.000000,,2013-04-02 20:44:00,
2013-04-02 16:55:00,88.0,58.0,-100.00,South,188,4.0,7.0,37,0.00,,,0.00,564.000000,,2013-04-02 20:55:00,
2013-04-02 17:04:00,88.0,58.0,-100.00,South,188,4.0,7.0,37,0.00,,,0.00,564.000000,,2013-04-02 21:04:00,
2013-04-02 18:11:00,84.0,61.0,-100.00,SW,236,5.0,12.0,46,-99.99,,,0.00,321.000000,,2013-04-02 22:11:00,
2013-04-02 18:34:00,84.0,61.0,-100.00,SW,236,5.0,12.0,46,-99.99,,,0.00,321.000000,,2013-04-02 22:34:00,
2013-04-02 18:44:00,84.0,61.0,-100.00,SW,236,5.0,12.0,46,-99.99,,,0.00,321.000000,,2013-04-02 22:44:00,
2013-04-02 18:54:00,84.0,61.0,-100.00,SW,236,5.0,12.0,46,-99.99,,,0.00,321.000000,,2013-04-02 22:54:00,
2013-04-02 19:03:00,84.0,61.0,-100.00,SW,236,5.0,12.0,46,-99.99,,,0.00,321.000000,,2013-04-02 23:03:00,
2013-04-02 19:11:00,78.0,61.0,-100.00,West,273,3.0,9.0,56,0.00,,,0.00,139.000000,,2013-04-02 23:11:00,
2013-04-02 19:43:00,78.0,61.0,-100.00,West,273,3.0,9.0,56,0.00,,,0.00,139.000000,,2013-04-02 23:43:00,
2013-04-02 19:54:00,78.0,61.0,-100.00,West,273,3.0,9.0,56,0.00,,,0.00,139.000000,,2013-04-02 23:54:00,
2013-04-02 20:05:00,78.0,61.0,-100.00,West,273,3.0,9.0,56,0.00,,,0.00,139.000000,,2013-04-03 00:05:00,
2013-04-02 20:11:00,71.0,62.0,-100.00,NW,318,0.0,6.0,73,0.00,,,0.00,10.000000,,2013-04-03 00:11:00,
2013-04-02 20:48:00,71.0,62.0,-100.00,NW,318,0.0,6.0,73,0.00,,,0.00,10.000000,,2013-04-03 00:48:00,
2013-04-02 20:57:00,71.0,62.0,-100.00,NW,318,0.0,6.0,73,0.00,,,0.00,10.000000,,2013-04-03 00:57:00,
2013-04-02 21:04:00,71.0,62.0,-100.00,NW,318,0.0,6.0,73,0.00,,,0.00,10.000000,,2013-04-03 01:04:00,
2013-04-02 21:11:00,66.0,61.0,-100.00,NW,326,0.0,3.0,85,0.00,,,0.00,0.000000,,2013-04-03 01:11:00,
2013-04-02 21:34:00,66.0,61.0,-100.00,NW,326,0.0,3.0,85,0.00,,,0.00,0.000000,,2013-04-03 01:34:00,
2013-04-02 21:43:00,66.0,61.0,-100.00,NW,326,0.0,3.0,85,0.00,,,0.00,0.000000,,2013-04-03 01:43:00,
2013-04-02 21:54:00,66.0,61.0,-100.00,NW,326,0.0,3.0,85,0.00,,,0.00,0.000000,,2013-04-03 01:54:00,
2013-04-02 22:04:00,66.0,61.0,-100.00,NW,326,0.0,3.0,85,0.00,,,0.00,0.000000,,2013-04-03 02:04:00,
2013-04-02 22:11:00,63.0,60.0,-100.00,South,185,0.0,2.0,89,0.00,,,0.00,0.000000,,2013-04-03 02:11:00,
2013-04-02 22:34:00,63.0,60.0,-100.00,South,185,0.0,2.0,89,0.00,,,0.00,0.000000,,2013-04-03 02:34:00,
2013-04-02 22:44:00,63.0,60.0,-100.00,South,185,0.0,2.0,89,0.00,,,0.00,0.000000,,2013-04-03 02:44:00,
2013-04-02 22:53:00,63.0,60.0,-100.00,South,185,0.0,2.0,89,0.00,,,0.00,0.000000,,2013-04-03 02:53:00,
2013-04-02 23:06:00,63.0,60.0,-100.00,South,185,0.0,2.0,89,0.00,,,0.00,0.000000,,2013-04-03 03:06:00,
2013-04-02 23:11:00,64.0,61.0,-100.00,NE,41,0.0,3.0,90,0.00,,,0.00,0.000000,,2013-04-03 03:11:00,
2013-04-02 23:44:00,64.0,61.0,-100.00,NE,41,0.0,3.0,90,0.00,,,0.00,0.000000,,2013-04-03 03:44:00,
2013-04-02 23:54:00,64.0,61.0,-100.00,NE,41,0.0,3.0,90,0.00,,,0.00,0.000000,,2013-04-03 03:54:00,